MAPA DE AEROPUERTO

INFORMACIÓN METAR y TAF

METAR FOR LEAS
ADDS - METARS form results

(0715 UTC 15 July 2020)
Data provider http://aviationweather.gov/metar/data/
 
METAR text: LEAS 150700Z 18003KT 140V210 9999 FEW010 BKN020 17/16 Q1023 NOSIG
Conditions at: LEAS (ASTURIAS/AVILES , ES) observed 0700 UTC 15 July 2020
Temperature: 17.0°C (63°F)
Dewpoint: 16.0°C (61°F) [RH = 94%]
Pressure (altimeter): 30.21 inches Hg (1023.0 mb)
Winds: from the S (180 degrees) at 3 MPH (3 knots; 1.5 m/s)
Visibility: 6 or more miles (10+ km)
Ceiling: 2000 feet AGL
Clouds: few clouds at 1000 feet AGL
broken clouds at 2000 feet AGL
Weather: no significant weather observed at this time

METAR text: LEAS 150630Z VRB02KT 9999 SCT015 BKN025 16/16 Q1023 NOSIG
Conditions at: LEAS (ASTURIAS/AVILES , ES) observed 0630 UTC 15 July 2020
Temperature: 16.0°C (61°F)
Dewpoint: 16.0°C (61°F) [RH = 100%]
Pressure (altimeter): 30.21 inches Hg (1023.0 mb)
Winds: variable direction winds at 2 MPH (2 knots; 1.0 m/s)
Visibility: 6 or more miles (10+ km)
Ceiling: 2500 feet AGL
Clouds: scattered clouds at 1500 feet AGL
broken clouds at 2500 feet AGL
Weather: no significant weather observed at this time

Forecast for: LEAS (ASTURIAS/AVILES , ES)
Text: TAF LEAS 150200Z 1503/1603 VRB03KT 9999 SCT015 BKN025 TX20/1513Z TN15/1505Z
Forecast period: 0300 to 0400 UTC 15 July 2020
Forecast type: FROM: standard forecast or significant change
Winds: variable direction winds at 3 MPH (3 knots; 1.5 m/s)
Visibility: 6 or more miles 10+ km)
Ceiling: 2500 feet AGL
Clouds: scattered clouds at 1500 feet AGL
broken clouds at 2500 feet AGL
Weather: no significant weather forecast for this period
Text: TEMPO 1503/1509 3000 -RADZ BR BKN010 BKN014
Forecast period: 0300 to 0900 UTC 15 July 2020
Forecast type: TEMPORARY: The following changes expected for less than half the time period
Visibility: 1.86 miles (2.99 km)
Ceiling: 1000 feet AGL
Clouds: broken clouds at 1000 feet AGL
broken clouds at 1400 feet AGL
Weather: -RA -DZ BR  (light rain, light drizzle, mist)
Text: BECMG 1504/1508 03010KT
Forecast period: 0400 UTC 15 July 2020 to 0300 UTC 16 July 2020
Forecast type: BECOMING: Conditions expected to become as follows by 0800 UTC 15 July 2020
Winds: from the NNE (30 degrees) at 12 MPH (10 knots; 5.1 m/s)
Visibility: 6 or more miles 10+ km)
Ceiling: 2500 feet AGL
Clouds: scattered clouds at 1500 feet AGL
broken clouds at 2500 feet AGL
Weather: no significant weather forecast for this period